sensor_id;sensor_type;location;lat;lon;timestamp;pressure;altitude;pressure_sealevel;temperature;humidity
7662;BME280;30314;48.184;11.510;2023-01-30T00:00:52;96406.56;;;23.28;33.16
7662;BME280;30314;48.184;11.510;2023-01-30T00:03:20;96408.72;;;23.19;33.21
7662;BME280;30314;48.184;11.510;2023-01-30T00:05:47;96404.16;;;23.23;33.20
7662;BME280;30314;48.184;11.510;2023-01-30T00:08:14;96391.34;;;23.16;33.19
7662;BME280;30314;48.184;11.510;2023-01-30T00:10:41;96389.22;;;23.06;33.48
7662;BME280;30314;48.184;11.510;2023-01-30T00:13:07;96381.03;;;22.99;33.73
7662;BME280;30314;48.184;11.510;2023-01-30T00:15:34;96379.09;;;22.99;33.61
7662;BME280;30314;48.184;11.510;2023-01-30T00:18:01;96382.16;;;22.98;33.66
7662;BME280;30314;48.184;11.510;2023-01-30T00:20:28;96376.34;;;22.95;33.58
7662;BME280;30314;48.184;11.510;2023-01-30T00:22:54;96382.09;;;22.94;33.50
7662;BME280;30314;48.184;11.510;2023-01-30T00:25:27;96375.22;;;22.97;33.56
7662;BME280;30314;48.184;11.510;2023-01-30T00:27:53;96370.91;;;22.92;33.61
7662;BME280;30314;48.184;11.510;2023-01-30T00:30:21;96365.53;;;22.95;33.31
7662;BME280;30314;48.184;11.510;2023-01-30T00:32:52;96356.22;;;22.89;33.69
7662;BME280;30314;48.184;11.510;2023-01-30T00:35:19;96354.66;;;22.88;33.65
7662;BME280;30314;48.184;11.510;2023-01-30T00:37:45;96357.22;;;22.81;33.79
7662;BME280;30314;48.184;11.510;2023-01-30T00:40:13;96348.00;;;22.82;33.83
7662;BME280;30314;48.184;11.510;2023-01-30T00:42:40;96347.16;;;22.78;33.96
7662;BME280;30314;48.184;11.510;2023-01-30T00:45:25;96337.50;;;22.77;33.91
7662;BME280;30314;48.184;11.510;2023-01-30T00:48:10;96337.50;;;22.77;33.87
7662;BME280;30314;48.184;11.510;2023-01-30T00:50:36;96338.66;;;22.76;33.94
7662;BME280;30314;48.184;11.510;2023-01-30T00:53:11;96330.91;;;22.74;34.11
7662;BME280;30314;48.184;11.510;2023-01-30T00:55:39;96325.50;;;22.71;34.01
7662;BME280;30314;48.184;11.510;2023-01-30T00:58:06;96325.34;;;22.63;34.09
7662;BME280;30314;48.184;11.510;2023-01-30T01:00:33;96321.50;;;22.64;33.96
7662;BME280;30314;48.184;11.510;2023-01-30T01:02:59;96316.00;;;22.57;34.28
7662;BME280;30314;48.184;11.510;2023-01-30T01:05:26;96312.03;;;22.51;34.28
7662;BME280;30314;48.184;11.510;2023-01-30T01:07:54;96303.53;;;22.49;34.22
7662;BME280;30314;48.184;11.510;2023-01-30T01:10:22;96296.59;;;22.48;34.39
7662;BME280;30314;48.184;11.510;2023-01-30T01:12:49;96304.91;;;22.43;34.47
7662;BME280;30314;48.184;11.510;2023-01-30T01:15:21;96308.34;;;22.39;34.42
7662;BME280;30314;48.184;11.510;2023-01-30T01:17:48;96313.72;;;22.39;34.63
7662;BME280;30314;48.184;11.510;2023-01-30T01:20:15;96310.25;;;22.39;34.47
7662;BME280;30314;48.184;11.510;2023-01-30T01:22:42;96322.53;;;22.36;34.55
7662;BME280;30314;48.184;11.510;2023-01-30T01:25:09;96308.22;;;22.32;34.61
7662;BME280;30314;48.184;11.510;2023-01-30T01:27:38;96309.69;;;22.30;34.64
7662;BME280;30314;48.184;11.510;2023-01-30T01:30:05;96305.09;;;22.30;34.61
7662;BME280;30314;48.184;11.510;2023-01-30T01:32:31;96299.34;;;22.32;34.60
7662;BME280;30314;48.184;11.510;2023-01-30T01:34:58;96303.47;;;22.25;34.84
7662;BME280;30314;48.184;11.510;2023-01-30T01:37:24;96305.25;;;22.18;34.82
7662;BME280;30314;48.184;11.510;2023-01-30T01:39:51;96302.25;;;22.23;34.61
7662;BME280;30314;48.184;11.510;2023-01-30T01:42:37;96302.19;;;22.19;34.81
7662;BME280;30314;48.184;11.510;2023-01-30T01:47:43;96285.13;;;22.11;34.89
7662;BME280;30314;48.184;11.510;2023-01-30T01:50:15;96279.72;;;22.11;34.95
7662;BME280;30314;48.184;11.510;2023-01-30T01:52:43;96280.75;;;22.03;34.95
7662;BME280;30314;48.184;11.510;2023-01-30T01:55:10;96280.38;;;22.05;34.95
7662;BME280;30314;48.184;11.510;2023-01-30T01:57:46;96285.69;;;22.01;35.13
7662;BME280;30314;48.184;11.510;2023-01-30T02:00:16;96278.47;;;22.05;35.14
7662;BME280;30314;48.184;11.510;2023-01-30T02:02:51;96281.09;;;22.02;35.01
7662;BME280;30314;48.184;11.510;2023-01-30T02:05:19;96288.75;;;22.00;35.00
7662;BME280;30314;48.184;11.510;2023-01-30T02:08:32;96284.84;;;21.97;35.19
7662;BME280;30314;48.184;11.510;2023-01-30T02:11:07;96288.31;;;21.98;35.17
7662;BME280;30314;48.184;11.510;2023-01-30T02:13:36;96301.69;;;21.94;35.27
7662;BME280;30314;48.184;11.510;2023-01-30T02:16:05;96295.91;;;21.92;35.11
7662;BME280;30314;48.184;11.510;2023-01-30T02:18:33;96292.41;;;21.91;35.31
7662;BME280;30314;48.184;11.510;2023-01-30T02:24:01;96305.78;;;21.88;35.39
7662;BME280;30314;48.184;11.510;2023-01-30T02:26:45;96294.59;;;21.86;35.33
7662;BME280;30314;48.184;11.510;2023-01-30T02:29:48;96294.59;;;21.86;35.26
7662;BME280;30314;48.184;11.510;2023-01-30T02:32:33;96291.56;;;21.87;35.31
7662;BME280;30314;48.184;11.510;2023-01-30T02:40:51;96295.16;;;21.75;35.48
7662;BME280;30314;48.184;11.510;2023-01-30T02:43:51;96299.34;;;21.73;35.63
7662;BME280;30314;48.184;11.510;2023-01-30T02:46:42;96304.38;;;21.74;35.43
7662;BME280;30314;48.184;11.510;2023-01-30T02:49:31;96291.63;;;21.71;35.68
7662;BME280;30314;48.184;11.510;2023-01-30T02:52:00;96302.38;;;21.71;35.60
7662;BME280;30314;48.184;11.510;2023-01-30T02:54:27;96295.78;;;21.68;35.56
7662;BME280;30314;48.184;11.510;2023-01-30T02:56:57;96304.66;;;21.69;35.58
7662;BME280;30314;48.184;11.510;2023-01-30T02:59:35;96309.59;;;21.67;35.79
7662;BME280;30314;48.184;11.510;2023-01-30T03:07:53;96318.63;;;21.59;35.67
7662;BME280;30314;48.184;11.510;2023-01-30T03:16:37;96311.09;;;21.48;35.76
7662;BME280;30314;48.184;11.510;2023-01-30T03:18:31;96297.38;;;21.53;35.87
7662;BME280;30314;48.184;11.510;2023-01-30T03:21:03;96293.13;;;21.52;35.66
7662;BME280;30314;48.184;11.510;2023-01-30T03:23:30;96267.38;;;21.51;35.88
7662;BME280;30314;48.184;11.510;2023-01-30T03:25:57;96271.53;;;21.49;36.02
7662;BME280;30314;48.184;11.510;2023-01-30T03:28:25;96277.97;;;21.44;36.02
7662;BME280;30314;48.184;11.510;2023-01-30T03:30:52;96284.56;;;21.47;35.88
7662;BME280;30314;48.184;11.510;2023-01-30T03:33:18;96292.97;;;21.45;35.83
7662;BME280;30314;48.184;11.510;2023-01-30T03:35:48;96277.53;;;21.42;35.95
7662;BME280;30314;48.184;11.510;2023-01-30T03:38:15;96276.75;;;21.41;35.90
7662;BME280;30314;48.184;11.510;2023-01-30T03:40:41;96262.94;;;21.43;35.88
7662;BME280;30314;48.184;11.510;2023-01-30T03:43:08;96269.13;;;21.44;35.75
7662;BME280;30314;48.184;11.510;2023-01-30T03:45:36;96262.09;;;21.39;35.88
7662;BME280;30314;48.184;11.510;2023-01-30T03:48:03;96260.19;;;21.39;35.64
7662;BME280;30314;48.184;11.510;2023-01-30T03:50:31;96260.53;;;21.38;35.84
7662;BME280;30314;48.184;11.510;2023-01-30T03:52:59;96260.59;;;21.41;35.89
7662;BME280;30314;48.184;11.510;2023-01-30T03:55:25;96260.19;;;21.39;35.98
7662;BME280;30314;48.184;11.510;2023-01-30T03:57:56;96260.53;;;21.38;35.99
7662;BME280;30314;48.184;11.510;2023-01-30T04:00:25;96256.31;;;21.37;35.97
7662;BME280;30314;48.184;11.510;2023-01-30T04:02:52;96245.88;;;21.35;36.00
7662;BME280;30314;48.184;11.510;2023-01-30T04:05:20;96237.41;;;21.33;36.01
7662;BME280;30314;48.184;11.510;2023-01-30T04:07:57;96256.63;;;21.35;36.18
7662;BME280;30314;48.184;11.510;2023-01-30T04:10:25;96267.31;;;21.32;36.15
7662;BME280;30314;48.184;11.510;2023-01-30T04:12:53;96271.94;;;21.31;35.95
7662;BME280;30314;48.184;11.510;2023-01-30T04:15:21;96273.41;;;21.29;36.09
7662;BME280;30314;48.184;11.510;2023-01-30T04:17:50;96272.97;;;21.26;36.18
7662;BME280;30314;48.184;11.510;2023-01-30T04:20:37;96256.41;;;21.24;36.25
7662;BME280;30314;48.184;11.510;2023-01-30T04:23:04;96261.78;;;21.24;36.11
7662;BME280;30314;48.184;11.510;2023-01-30T04:25:30;96269.84;;;21.24;36.14
7662;BME280;30314;48.184;11.510;2023-01-30T04:27:57;96259.44;;;21.23;36.44
7662;BME280;30314;48.184;11.510;2023-01-30T04:30:28;96253.97;;;21.19;36.11
7662;BME280;30314;48.184;11.510;2023-01-30T04:33:11;96267.84;;;21.21;36.06
7662;BME280;30314;48.184;11.510;2023-01-30T04:35:37;96256.56;;;21.16;36.14
7662;BME280;30314;48.184;11.510;2023-01-30T04:38:04;96268.53;;;21.18;35.99
7662;BME280;30314;48.184;11.510;2023-01-30T04:40:31;96243.84;;;21.12;36.37
7662;BME280;30314;48.184;11.510;2023-01-30T04:42:58;96236.16;;;21.11;36.19
7662;BME280;30314;48.184;11.510;2023-01-30T04:45:45;96225.03;;;21.12;36.30
7662;BME280;30314;48.184;11.510;2023-01-30T04:48:12;96213.84;;;21.10;36.36
7662;BME280;30314;48.184;11.510;2023-01-30T04:50:40;96209.59;;;21.09;36.27
7662;BME280;30314;48.184;11.510;2023-01-30T04:53:08;96200.31;;;21.07;36.40
7662;BME280;30314;48.184;11.510;2023-01-30T04:55:35;96211.88;;;21.07;36.21
7662;BME280;30314;48.184;11.510;2023-01-30T04:58:02;96208.25;;;21.00;36.21
7662;BME280;30314;48.184;11.510;2023-01-30T05:00:29;96220.00;;;21.11;36.19
7662;BME280;30314;48.184;11.510;2023-01-30T05:02:58;96222.69;;;21.11;36.19
7662;BME280;30314;48.184;11.510;2023-01-30T05:05:26;96223.81;;;21.10;36.08
7662;BME280;30314;48.184;11.510;2023-01-30T05:07:53;96228.09;;;21.11;36.38
7662;BME280;30314;48.184;11.510;2023-01-30T05:10:20;96202.31;;;21.10;36.20
7662;BME280;30314;48.184;11.510;2023-01-30T05:12:46;96184.63;;;21.09;36.43
7662;BME280;30314;48.184;11.510;2023-01-30T05:15:13;96193.31;;;21.02;36.34
7662;BME280;30314;48.184;11.510;2023-01-30T05:17:39;96187.25;;;21.05;36.68
7662;BME280;30314;48.184;11.510;2023-01-30T05:20:09;96190.69;;;21.06;36.61
7662;BME280;30314;48.184;11.510;2023-01-30T05:22:36;96203.00;;;21.07;36.76
7662;BME280;30314;48.184;11.510;2023-01-30T05:25:03;96198.00;;;21.05;36.80
7662;BME280;30314;48.184;11.510;2023-01-30T05:27:30;96196.06;;;21.06;36.53
7662;BME280;30314;48.184;11.510;2023-01-30T05:29:56;96203.72;;;21.04;36.86
7662;BME280;30314;48.184;11.510;2023-01-30T05:32:23;96194.88;;;21.03;36.88
7662;BME280;30314;48.184;11.510;2023-01-30T05:34:50;96200.31;;;21.07;36.80
7662;BME280;30314;48.184;11.510;2023-01-30T05:37:17;96205.28;;;21.05;37.05
7662;BME280;30314;48.184;11.510;2023-01-30T05:39:43;96206.41;;;21.04;37.18
7662;BME280;30314;48.184;11.510;2023-01-30T05:42:10;96204.84;;;21.03;37.05
7662;BME280;30314;48.184;11.510;2023-01-30T05:44:36;96205.56;;;21.00;36.87
7662;BME280;30314;48.184;11.510;2023-01-30T05:47:03;96200.22;;;21.03;37.49
7662;BME280;30314;48.184;11.510;2023-01-30T05:49:29;96202.25;;;21.06;37.10
7662;BME280;30314;48.184;11.510;2023-01-30T05:51:56;96183.44;;;21.06;37.36
7662;BME280;30314;48.184;11.510;2023-01-30T05:54:23;96174.16;;;21.04;37.38
7662;BME280;30314;48.184;11.510;2023-01-30T05:56:49;96186.78;;;21.03;37.23
7662;BME280;30314;48.184;11.510;2023-01-30T05:59:16;96177.97;;;21.03;37.44
7662;BME280;30314;48.184;11.510;2023-01-30T06:01:46;96177.53;;;21.01;37.63
7662;BME280;30314;48.184;11.510;2023-01-30T06:04:13;96185.59;;;21.01;37.63
7662;BME280;30314;48.184;11.510;2023-01-30T06:06:39;96185.25;;;21.02;37.70
7662;BME280;30314;48.184;11.510;2023-01-30T06:09:06;96182.91;;;21.01;37.50
7662;BME280;30314;48.184;11.510;2023-01-30T06:11:32;96170.63;;;21.00;37.59
7662;BME280;30314;48.184;11.510;2023-01-30T06:13:59;96174.44;;;20.98;38.17
7662;BME280;30314;48.184;11.510;2023-01-30T06:16:25;96182.13;;;21.00;37.84
7662;BME280;30314;48.184;11.510;2023-01-30T06:18:52;96170.53;;;20.96;37.86
7662;BME280;30314;48.184;11.510;2023-01-30T06:21:19;96163.69;;;20.98;37.92
7662;BME280;30314;48.184;11.510;2023-01-30T06:23:45;96169.13;;;21.02;38.17
7662;BME280;30314;48.184;11.510;2023-01-30T06:26:12;96190.63;;;21.02;38.34
7662;BME280;30314;48.184;11.510;2023-01-30T06:28:39;96193.59;;;20.97;36.30
7662;BME280;30314;48.184;11.510;2023-01-30T06:31:06;96182.59;;;20.86;35.31
7662;BME280;30314;48.184;11.510;2023-01-30T06:33:33;96181.88;;;20.73;35.05
7662;BME280;30314;48.184;11.510;2023-01-30T06:36:00;96185.19;;;20.66;34.83
7662;BME280;30314;48.184;11.510;2023-01-30T06:38:26;96193.25;;;20.66;35.33
7662;BME280;30314;48.184;11.510;2023-01-30T06:40:53;96196.81;;;20.70;36.07
7662;BME280;30314;48.184;11.510;2023-01-30T06:43:19;96176.09;;;20.71;35.98
7662;BME280;30314;48.184;11.510;2023-01-30T06:45:46;96192.28;;;20.75;36.26
7662;BME280;30314;48.184;11.510;2023-01-30T06:48:12;96199.66;;;20.78;35.96
7662;BME280;30314;48.184;11.510;2023-01-30T06:50:39;96191.94;;;20.76;36.39
7662;BME280;30314;48.184;11.510;2023-01-30T06:53:06;96198.88;;;20.77;36.48
7662;BME280;30314;48.184;11.510;2023-01-30T06:55:34;96203.47;;;20.77;36.32
7662;BME280;30314;48.184;11.510;2023-01-30T06:58:12;96196.97;;;20.78;36.46
7662;BME280;30314;48.184;11.510;2023-01-30T07:00:40;96196.63;;;20.79;36.44
7662;BME280;30314;48.184;11.510;2023-01-30T07:03:12;96205.34;;;20.76;36.31
7662;BME280;30314;48.184;11.510;2023-01-30T07:05:40;96200.06;;;20.80;36.43
7662;BME280;30314;48.184;11.510;2023-01-30T07:08:07;96202.75;;;20.80;36.50
7662;BME280;30314;48.184;11.510;2023-01-30T07:10:34;96195.41;;;20.77;36.44
7662;BME280;30314;48.184;11.510;2023-01-30T07:13:02;96198.09;;;20.77;36.59
7662;BME280;30314;48.184;11.510;2023-01-30T07:15:29;96196.97;;;20.78;36.60
7662;BME280;30314;48.184;11.510;2023-01-30T07:17:56;96199.66;;;20.78;36.70
7662;BME280;30314;48.184;11.510;2023-01-30T07:20:22;96217.22;;;20.75;36.34
7662;BME280;30314;48.184;11.510;2023-01-30T07:22:53;96209.97;;;20.76;36.44
7662;BME280;30314;48.184;11.510;2023-01-30T07:25:22;96197.66;;;20.75;36.55
7662;BME280;30314;48.184;11.510;2023-01-30T07:27:54;96200.69;;;20.73;36.87
7662;BME280;30314;48.184;11.510;2023-01-30T07:30:21;96187.25;;;20.73;36.42
7662;BME280;30314;48.184;11.510;2023-01-30T07:32:49;96189.19;;;20.73;36.81
7662;BME280;30314;48.184;11.510;2023-01-30T07:35:16;96194.56;;;20.73;36.59
7662;BME280;30314;48.184;11.510;2023-01-30T07:37:47;96191.44;;;20.70;36.69
7662;BME280;30314;48.184;11.510;2023-01-30T07:40:14;96187.63;;;20.72;36.74
7662;BME280;30314;48.184;11.510;2023-01-30T07:42:41;96186.84;;;20.71;36.77
7662;BME280;30314;48.184;11.510;2023-01-30T07:45:08;96176.09;;;20.71;36.71
7662;BME280;30314;48.184;11.510;2023-01-30T07:47:34;96175.31;;;20.70;36.68
7662;BME280;30314;48.184;11.510;2023-01-30T07:50:01;96182.25;;;20.72;36.63
7662;BME280;30314;48.184;11.510;2023-01-30T07:52:27;96169.94;;;20.70;36.62
7662;BME280;30314;48.184;11.510;2023-01-30T07:54:54;96156.94;;;20.73;36.63
7662;BME280;30314;48.184;11.510;2023-01-30T07:57:20;96150.00;;;20.72;36.62
7662;BME280;30314;48.184;11.510;2023-01-30T07:59:47;96146.19;;;20.73;36.53
7662;BME280;30314;48.184;11.510;2023-01-30T08:02:13;96151.56;;;20.73;36.28
7662;BME280;30314;48.184;11.510;2023-01-30T08:04:40;96150.00;;;20.72;36.62
7662;BME280;30314;48.184;11.510;2023-01-30T08:07:06;96137.78;;;20.74;36.59
7662;BME280;30314;48.184;11.510;2023-01-30T08:09:33;96145.06;;;20.74;36.33
7662;BME280;30314;48.184;11.510;2023-01-30T08:11:59;96141.69;;;20.77;36.50
7662;BME280;30314;48.184;11.510;2023-01-30T08:14:25;96143.94;;;20.75;36.60
7662;BME280;30314;48.184;11.510;2023-01-30T08:16:55;96143.16;;;20.74;36.45
7662;BME280;30314;48.184;11.510;2023-01-30T08:19:22;96142.38;;;20.74;36.50
7662;BME280;30314;48.184;11.510;2023-01-30T08:21:49;96147.75;;;20.74;36.62
7662;BME280;30314;48.184;11.510;2023-01-30T08:24:15;96150.44;;;20.74;36.47
7662;BME280;30314;48.184;11.510;2023-01-30T08:26:42;96143.22;;;20.78;36.86
7662;BME280;30314;48.184;11.510;2023-01-30T08:29:08;96133.28;;;20.78;36.84
7662;BME280;30314;48.184;11.510;2023-01-30T08:31:34;96145.16;;;20.77;36.67
7662;BME280;30314;48.184;11.510;2023-01-30T08:34:01;96139.41;;;20.79;36.69
7662;BME280;30314;48.184;11.510;2023-01-30T08:36:28;96122.88;;;20.77;36.48
7662;BME280;30314;48.184;11.510;2023-01-30T08:38:54;96101.03;;;20.78;36.27
7662;BME280;30314;48.184;11.510;2023-01-30T08:41:20;96117.25;;;20.82;36.19
7662;BME280;30314;48.184;11.510;2023-01-30T08:43:47;96117.59;;;20.80;35.98
7662;BME280;30314;48.184;11.510;2023-01-30T08:46:13;96123.41;;;20.82;35.96
7662;BME280;30314;48.184;11.510;2023-01-30T08:48:40;96115.69;;;20.81;35.85
7662;BME280;30314;48.184;11.510;2023-01-30T08:51:15;96113.41;;;20.83;35.73
7662;BME280;30314;48.184;11.510;2023-01-30T08:53:41;96109.63;;;20.84;35.49
7662;BME280;30314;48.184;11.510;2023-01-30T08:56:08;96114.22;;;20.83;35.36
7662;BME280;30314;48.184;11.510;2023-01-30T08:58:34;96110.75;;;20.83;35.19
7662;BME280;30314;48.184;11.510;2023-01-30T09:01:05;96108.84;;;20.83;34.97
7662;BME280;30314;48.184;11.510;2023-01-30T09:03:32;96101.56;;;20.84;34.88
7662;BME280;30314;48.184;11.510;2023-01-30T09:05:58;96103.47;;;20.83;34.79
7662;BME280;30314;48.184;11.510;2023-01-30T09:08:25;96113.41;;;20.83;34.83
7662;BME280;30314;48.184;11.510;2023-01-30T09:10:57;96108.13;;;20.87;34.37
7662;BME280;30314;48.184;11.510;2023-01-30T09:13:24;96105.88;;;20.89;34.56
7662;BME280;30314;48.184;11.510;2023-01-30T09:15:57;96092.81;;;20.87;34.25
7662;BME280;30314;48.184;11.510;2023-01-30T09:18:27;96093.16;;;20.86;34.49
7662;BME280;30314;48.184;11.510;2023-01-30T09:21:03;96097.38;;;20.87;34.54
7662;BME280;30314;48.184;11.510;2023-01-30T09:23:34;96102.41;;;20.88;34.00
7662;BME280;30314;48.184;11.510;2023-01-30T09:26:04;96098.19;;;20.87;34.34
7662;BME280;30314;48.184;11.510;2023-01-30T09:28:37;96107.00;;;20.88;34.08
7662;BME280;30314;48.184;11.510;2023-01-30T09:31:04;96108.94;;;20.87;34.12
7662;BME280;30314;48.184;11.510;2023-01-30T09:33:30;96120.53;;;20.91;33.83
7662;BME280;30314;48.184;11.510;2023-01-30T09:35:57;96125.13;;;20.91;34.00
7662;BME280;30314;48.184;11.510;2023-01-30T09:38:23;96112.81;;;20.90;33.74
7662;BME280;30314;48.184;11.510;2023-01-30T09:49:17;96088.63;;;20.90;33.33
7662;BME280;30314;48.184;11.510;2023-01-30T09:52:30;96086.00;;;20.93;33.28
7662;BME280;30314;48.184;11.510;2023-01-30T09:54:46;96077.09;;;20.89;33.30
7662;BME280;30314;48.184;11.510;2023-01-30T09:57:20;96059.09;;;20.74;33.36
7662;BME280;30314;48.184;11.510;2023-01-30T10:00:04;96068.19;;;20.85;33.47
7662;BME280;30314;48.184;11.510;2023-01-30T10:02:49;96074.34;;;20.86;33.53
7662;BME280;30314;48.184;11.510;2023-01-30T10:05:17;96068.19;;;20.85;33.56
7662;BME280;30314;48.184;11.510;2023-01-30T10:07:59;96070.50;;;20.87;33.29
7662;BME280;30314;48.184;11.510;2023-01-30T10:10:48;96079.72;;;20.86;33.47
7662;BME280;30314;48.184;11.510;2023-01-30T10:16:44;96061.81;;;20.93;33.55
7662;BME280;30314;48.184;11.510;2023-01-30T10:19:47;96053.06;;;20.96;33.76
7662;BME280;30314;48.184;11.510;2023-01-30T10:22:38;96036.94;;;20.96;33.86
7662;BME280;30314;48.184;11.510;2023-01-30T10:30:59;96018.97;;;21.01;33.96
7662;BME280;30314;48.184;11.510;2023-01-30T10:33:31;95995.94;;;21.00;34.10
7662;BME280;30314;48.184;11.510;2023-01-30T10:36:05;95988.22;;;20.98;33.97
7662;BME280;30314;48.184;11.510;2023-01-30T10:38:46;96006.31;;;21.01;34.12
7662;BME280;30314;48.184;11.510;2023-01-30T10:41:23;95998.63;;;21.00;34.09
7662;BME280;30314;48.184;11.510;2023-01-30T10:44:04;96004.03;;;21.03;34.11
7662;BME280;30314;48.184;11.510;2023-01-30T10:49:24;96009.78;;;21.02;34.14
7662;BME280;30314;48.184;11.510;2023-01-30T10:52:21;96003.28;;;21.03;34.11
7662;BME280;30314;48.184;11.510;2023-01-30T11:00:18;96007.84;;;21.02;34.32
7662;BME280;30314;48.184;11.510;2023-01-30T11:03:03;96013.25;;;21.02;34.14
7662;BME280;30314;48.184;11.510;2023-01-30T11:08:16;95994.72;;;20.97;34.33
7662;BME280;30314;48.184;11.510;2023-01-30T11:10:43;95984.31;;;20.95;34.38
7662;BME280;30314;48.184;11.510;2023-01-30T11:13:32;95985.44;;;20.94;34.49
7662;BME280;30314;48.184;11.510;2023-01-30T11:16:06;95969.91;;;20.84;34.50
7662;BME280;30314;48.184;11.510;2023-01-30T11:18:46;95979.66;;;20.92;34.38
7662;BME280;30314;48.184;11.510;2023-01-30T11:21:33;95963.53;;;20.92;34.48
7662;BME280;30314;48.184;11.510;2023-01-30T11:24:15;95955.06;;;20.90;34.49
7662;BME280;30314;48.184;11.510;2023-01-30T11:26:43;95953.16;;;20.91;34.53
7662;BME280;30314;48.184;11.510;2023-01-30T11:29:31;95939.34;;;20.92;34.44
7662;BME280;30314;48.184;11.510;2023-01-30T11:32:26;95919.72;;;20.88;34.62
7662;BME280;30314;48.184;11.510;2023-01-30T11:35:19;95933.56;;;20.90;34.60
7662;BME280;30314;48.184;11.510;2023-01-30T11:37:46;95925.09;;;20.88;34.70
7662;BME280;30314;48.184;11.510;2023-01-30T11:42:45;95933.13;;;20.88;34.93
7662;BME280;30314;48.184;11.510;2023-01-30T11:45:12;95927.78;;;20.88;34.72
7662;BME280;30314;48.184;11.510;2023-01-30T11:47:50;95926.97;;;20.88;34.99
7662;BME280;30314;48.184;11.510;2023-01-30T11:50:39;95922.75;;;20.87;34.97
7662;BME280;30314;48.184;11.510;2023-01-30T11:53:18;95916.59;;;20.86;35.13
7662;BME280;30314;48.184;11.510;2023-01-30T11:55:46;95903.84;;;20.83;35.11
7662;BME280;30314;48.184;11.510;2023-01-30T11:58:32;95911.16;;;20.82;35.25
7662;BME280;30314;48.184;11.510;2023-01-30T12:01:01;95911.50;;;20.81;35.17
7662;BME280;30314;48.184;11.510;2023-01-30T12:03:27;95894.94;;;20.79;35.21
7662;BME280;30314;48.184;11.510;2023-01-30T12:05:57;95912.53;;;20.76;35.28
7662;BME280;30314;48.184;11.510;2023-01-30T12:08:32;95907.16;;;20.76;35.24
7662;BME280;30314;48.184;11.510;2023-01-30T12:11:27;95903.72;;;20.76;35.33
7662;BME280;30314;48.184;11.510;2023-01-30T12:14:31;95897.94;;;20.74;35.03
7662;BME280;30314;48.184;11.510;2023-01-30T12:17:12;95886.75;;;20.72;35.36
7662;BME280;30314;48.184;11.510;2023-01-30T12:19:51;95884.41;;;20.70;35.27
7662;BME280;30314;48.184;11.510;2023-01-30T12:25:21;95863.66;;;20.67;35.20
7662;BME280;30314;48.184;11.510;2023-01-30T12:27:54;95874.03;;;20.68;35.28
7662;BME280;30314;48.184;11.510;2023-01-30T12:30:35;95876.28;;;20.66;35.19
7662;BME280;30314;48.184;11.510;2023-01-30T12:33:05;95870.91;;;20.66;35.24
7662;BME280;30314;48.184;11.510;2023-01-30T12:44:12;95844.44;;;20.65;35.19
7662;BME280;30314;48.184;11.510;2023-01-30T12:49:56;95850.16;;;20.63;35.17
7662;BME280;30314;48.184;11.510;2023-01-30T12:52:45;95835.59;;;20.64;35.53
7662;BME280;30314;48.184;11.510;2023-01-30T12:58:03;95848.66;;;20.66;35.59
7662;BME280;30314;48.184;11.510;2023-01-30T13:00:33;95849.81;;;20.65;35.65
7662;BME280;30314;48.184;11.510;2023-01-30T13:03:22;95857.50;;;20.66;35.66
7662;BME280;30314;48.184;11.510;2023-01-30T13:11:44;95856.31;;;20.64;35.87
7662;BME280;30314;48.184;11.510;2023-01-30T13:19:45;95874.03;;;20.68;35.39
7662;BME280;30314;48.184;11.510;2023-01-30T13:25:46;95885.47;;;20.65;35.60
7662;BME280;30314;48.184;11.510;2023-01-30T13:28:25;95895.81;;;20.63;35.65
7662;BME280;30314;48.184;11.510;2023-01-30T13:30:54;95890.44;;;20.63;35.62
7662;BME280;30314;48.184;11.510;2023-01-30T13:33:25;95892.69;;;20.61;35.38
7662;BME280;30314;48.184;11.510;2023-01-30T13:36:02;95895.38;;;20.61;35.60
7662;BME280;30314;48.184;11.510;2023-01-30T13:38:33;95893.47;;;20.62;35.35
7662;BME280;30314;48.184;11.510;2023-01-30T13:41:01;95904.22;;;20.62;35.36
7662;BME280;30314;48.184;11.510;2023-01-30T13:43:37;95891.91;;;20.61;35.34
7662;BME280;30314;48.184;11.510;2023-01-30T13:46:07;95909.94;;;20.60;35.28
7662;BME280;30314;48.184;11.510;2023-01-30T13:51:38;95911.84;;;20.60;35.04
7662;BME280;30314;48.184;11.510;2023-01-30T14:11:03;95926.19;;;20.48;35.47
7662;BME280;30314;48.184;11.510;2023-01-30T14:13:30;95931.56;;;20.48;35.28
7662;BME280;30314;48.184;11.510;2023-01-30T14:16:03;95925.41;;;20.47;35.31
7662;BME280;30314;48.184;11.510;2023-01-30T14:18:35;95940.75;;;20.47;35.23
7662;BME280;30314;48.184;11.510;2023-01-30T14:21:19;95941.44;;;20.43;35.26
7662;BME280;30314;48.184;11.510;2023-01-30T14:23:57;95947.59;;;20.44;35.41
7662;BME280;30314;48.184;11.510;2023-01-30T14:35:22;95959.06;;;20.41;35.21
7662;BME280;30314;48.184;11.510;2023-01-30T14:40:29;95968.56;;;20.38;35.32
7662;BME280;30314;48.184;11.510;2023-01-30T14:46:00;95980.78;;;20.36;35.44
7662;BME280;30314;48.184;11.510;2023-01-30T14:48:45;95996.91;;;20.36;35.32
7662;BME280;30314;48.184;11.510;2023-01-30T14:56:59;96002.22;;;20.32;35.53
7662;BME280;30314;48.184;11.510;2023-01-30T15:01:55;95985.75;;;20.34;35.41
7662;BME280;30314;48.184;11.510;2023-01-30T15:04:26;95997.25;;;20.34;35.38
7662;BME280;30314;48.184;11.510;2023-01-30T15:06:55;96000.38;;;20.36;35.61
7662;BME280;30314;48.184;11.510;2023-01-30T15:09:26;96015.00;;;20.39;35.28
7662;BME280;30314;48.184;11.510;2023-01-30T15:14:37;96035.69;;;20.38;35.58
7662;BME280;30314;48.184;11.510;2023-01-30T15:17:28;96038.81;;;20.40;35.34
7662;BME280;30314;48.184;11.510;2023-01-30T15:22:59;96045.72;;;20.41;35.82
7662;BME280;30314;48.184;11.510;2023-01-30T15:26:02;96049.13;;;20.38;34.96
7662;BME280;30314;48.184;11.510;2023-01-30T15:28:51;96051.72;;;20.35;35.54
7662;BME280;30314;48.184;11.510;2023-01-30T15:31:22;96059.09;;;20.38;35.46
7662;BME280;30314;48.184;11.510;2023-01-30T15:33:50;96061.00;;;20.37;35.52
7662;BME280;30314;48.184;11.510;2023-01-30T15:36:31;96069.38;;;20.36;35.48